South Dos Palos, California
Current Conditions -  °F | °C
As of 6:53 AM on Friday 28 Nov 2014 (Local Time) from KMCE Reporting Station
Haze Haze  
Wind Chill: 37°   Ceiling: Unl
Heat Index: 40°   Visibility: 2.5mi
Dew Point: 37°   Wind: 5mph
Humidity: 89%   Direction: 130°SE
Pressure: 30"   Gusts: NA
Location:  36.96°N, 120.65°W
Report Text: KMCE 281453Z AUTO 13004KT 2 1/2SM BR CLR 04/03 A3000 RMK AO2 SLP159 T00440028 56007
Loading
Personal Weather Stations






























Interactive Weather Map New forecast layout! Learn more

10-Day Weather Forecast

Advertisements
Track Severe Weather on mobile